createdAt,value
2018-07-16T00:01:01.144Z,7.2
2018-07-16T00:06:01.140Z,7.4
2018-07-16T00:11:01.134Z,7.0
2018-07-16T00:26:01.117Z,7.0
2018-07-16T00:31:01.104Z,7.3
2018-07-16T00:36:01.109Z,7.6
2018-07-16T00:47:01.108Z,7.7
2018-07-16T00:52:01.105Z,8.6
2018-07-16T00:57:01.107Z,9.2
2018-07-16T01:02:01.104Z,9.4
2018-07-16T01:07:01.109Z,9.8
2018-07-16T01:17:01.111Z,9.0
2018-07-16T01:22:01.111Z,8.1
2018-07-16T01:27:01.099Z,7.8
2018-07-16T01:32:01.099Z,7.6
2018-07-16T01:37:01.099Z,7.8
2018-07-16T01:42:01.102Z,8.1
2018-07-16T01:47:01.107Z,9.2
2018-07-16T01:52:01.110Z,9.1
2018-07-16T01:57:01.110Z,9.3
2018-07-16T02:02:02.146Z,9.8
2018-07-16T02:08:01.100Z,10.3
2018-07-16T02:13:01.106Z,9.7
2018-07-16T02:18:01.113Z,9.8
2018-07-16T02:23:01.101Z,10.0
2018-07-16T02:28:01.404Z,10.5
2018-07-16T02:33:01.112Z,10.4
2018-07-16T02:38:01.113Z,10.3
2018-07-16T02:44:06.275Z,10.7
2018-07-16T02:49:06.173Z,10.4
2018-07-16T02:54:06.111Z,9.5
2018-07-16T02:59:06.175Z,9.8
2018-07-16T03:04:01.103Z,10.0
2018-07-16T03:09:01.178Z,10.2
2018-07-16T03:14:01.084Z,10.8
2018-07-16T03:19:01.110Z,11.2
2018-07-16T03:24:01.115Z,11.3
2018-07-16T03:29:01.102Z,11.4
2018-07-16T03:34:01.106Z,11.8
2018-07-16T03:39:01.109Z,12.0
2018-07-16T03:44:01.082Z,13.1
2018-07-16T03:49:01.103Z,12.3
2018-07-16T03:54:01.081Z,12.8
2018-07-16T03:59:01.109Z,12.9
2018-07-16T04:04:01.107Z,12.4
2018-07-16T04:09:01.226Z,11.5
2018-07-16T04:14:01.101Z,11.9
2018-07-16T04:19:01.111Z,11.7
2018-07-16T04:24:01.106Z,11.5
2018-07-16T04:29:01.169Z,11.8
2018-07-16T04:34:01.106Z,12.3
2018-07-16T04:39:01.145Z,12.5
2018-07-16T04:44:01.112Z,12.6
2018-07-16T04:49:01.116Z,13.1
2018-07-16T04:54:01.100Z,14.3
2018-07-16T04:59:01.228Z,14.8
2018-07-16T05:04:01.073Z,16.0
2018-07-16T05:09:01.168Z,16.6
2018-07-16T05:14:11.112Z,17.3
2018-07-16T05:19:01.142Z,17.5
2018-07-16T05:24:01.159Z,17.2
2018-07-16T05:29:01.177Z,16.7
2018-07-16T05:34:01.103Z,16.5
2018-07-16T05:39:01.110Z,16.0
2018-07-16T05:44:01.096Z,15.2
2018-07-16T05:54:01.169Z,15.9
2018-07-16T05:59:01.233Z,16.4
2018-07-16T06:09:01.173Z,16.2
2018-07-16T06:14:01.101Z,16.0
2018-07-16T06:19:01.177Z,15.6
2018-07-16T06:24:01.189Z,14.4
2018-07-16T06:34:01.172Z,14.3
2018-07-16T06:39:01.241Z,13.8
2018-07-16T06:44:01.107Z,12.9
2018-07-16T06:49:01.169Z,13.3
2018-07-16T06:54:01.175Z,13.0
2018-07-16T06:59:01.178Z,13.3
2018-07-16T07:04:01.081Z,14.0
2018-07-16T07:09:01.161Z,13.9
2018-07-16T07:14:01.097Z,15.2
2018-07-16T07:19:01.108Z,15.5
2018-07-16T07:24:01.102Z,15.3
2018-07-16T07:29:01.110Z,15.1
2018-07-16T07:34:01.170Z,15.4
2018-07-16T07:39:01.173Z,14.2
2018-07-16T07:44:01.114Z,13.7
2018-07-16T07:49:01.118Z,13.5
2018-07-16T07:54:01.091Z,13.4
2018-07-16T07:59:01.164Z,13.8
2018-07-16T08:04:01.106Z,14.0
2018-07-16T08:09:01.195Z,13.6
2018-07-16T08:14:06.112Z,13.9
2018-07-16T08:19:06.242Z,13.7
2018-07-16T08:24:06.121Z,13.6
2018-07-16T08:29:07.144Z,13.3
2018-07-16T08:35:06.065Z,13.8
2018-07-16T08:40:01.162Z,13.6
2018-07-16T08:45:06.175Z,13.8
2018-07-16T08:55:01.168Z,13.5
2018-07-16T09:00:01.108Z,14.4
2018-07-16T09:05:01.109Z,14.6
2018-07-16T09:10:01.225Z,14.8
2018-07-16T09:15:01.061Z,14.2
2018-07-16T09:20:01.166Z,15.0
2018-07-16T09:25:01.163Z,14.2
2018-07-16T09:30:01.169Z,14.1
2018-07-16T09:35:01.102Z,14.6
2018-07-16T09:40:01.235Z,14.9
2018-07-16T09:45:01.113Z,14.8
2018-07-16T09:50:01.172Z,14.2
2018-07-16T09:56:01.074Z,13.8
2018-07-16T10:01:01.159Z,13.2
2018-07-16T10:06:01.100Z,13.1
2018-07-16T10:11:01.169Z,12.8
2018-07-16T10:16:01.106Z,12.7
2018-07-16T10:21:01.235Z,13.6
2018-07-16T10:26:01.139Z,13.2
2018-07-16T10:31:01.160Z,13.3
2018-07-16T10:36:06.100Z,13.0
2018-07-16T10:41:01.190Z,13.2
2018-07-16T10:46:01.097Z,13.1
2018-07-16T10:51:01.233Z,13.6
2018-07-16T10:56:01.102Z,13.5
2018-07-16T11:01:01.235Z,13.6
2018-07-16T11:06:01.076Z,13.8
2018-07-16T11:11:01.191Z,12.9
2018-07-16T11:21:06.099Z,12.7
2018-07-16T11:26:01.130Z,13.2
2018-07-16T11:31:01.195Z,13.0
2018-07-16T11:36:06.111Z,12.8
2018-07-16T11:41:01.195Z,12.5
2018-07-16T11:46:01.211Z,12.6
2018-07-16T11:51:01.265Z,11.8
2018-07-16T11:56:01.116Z,12.2
2018-07-16T12:01:06.170Z,13.4
2018-07-16T12:11:06.108Z,13.5
2018-07-16T12:16:01.113Z,14.2
2018-07-16T12:21:01.173Z,13.9
2018-07-16T12:26:01.182Z,13.4
2018-07-16T12:36:01.172Z,13.8
2018-07-16T12:41:01.225Z,14.2
2018-07-16T12:46:01.104Z,14.3
2018-07-16T12:51:01.166Z,14.8
2018-07-16T12:56:01.104Z,15.0
2018-07-16T13:01:01.168Z,14.6
2018-07-16T13:06:01.132Z,13.6
2018-07-16T13:11:01.105Z,13.4
2018-07-16T13:16:01.157Z,12.8
2018-07-16T13:21:01.241Z,12.0
2018-07-16T13:26:06.101Z,11.6
2018-07-16T13:31:01.101Z,11.7
2018-07-16T13:36:01.100Z,11.2
2018-07-16T13:41:01.103Z,10.6
2018-07-16T13:46:01.105Z,10.8
2018-07-16T13:51:01.236Z,11.2
2018-07-16T13:56:01.109Z,11.4
2018-07-16T14:01:01.180Z,11.6
2018-07-16T14:06:01.098Z,12.0
2018-07-16T14:11:01.103Z,11.7
2018-07-16T14:16:01.105Z,11.6
2018-07-16T14:21:01.178Z,11.3
2018-07-16T14:26:01.076Z,11.4
2018-07-16T14:31:01.109Z,11.6
2018-07-16T14:36:01.104Z,11.3
2018-07-16T14:41:01.109Z,10.9
2018-07-16T14:46:01.110Z,11.0
2018-07-16T14:51:01.169Z,11.1
2018-07-16T14:56:01.100Z,10.8
2018-07-16T15:01:01.167Z,11.2
2018-07-16T15:11:06.244Z,11.6
2018-07-16T15:16:01.076Z,11.2
2018-07-16T15:21:01.487Z,11.3
2018-07-16T15:26:01.114Z,11.1
2018-07-16T15:32:01.164Z,11.0
2018-07-16T15:37:01.102Z,10.9
2018-07-16T15:42:01.102Z,11.0
2018-07-16T15:52:01.233Z,11.4
2018-07-16T16:07:01.241Z,11.3
2018-07-16T16:12:01.115Z,11.4
2018-07-16T16:27:01.167Z,11.3
2018-07-16T16:37:01.243Z,11.4
2018-07-16T16:42:01.116Z,11.0
2018-07-16T16:47:01.076Z,10.6
2018-07-16T16:52:01.243Z,10.3
2018-07-16T16:57:01.112Z,10.0
2018-07-16T17:03:01.229Z,9.2
2018-07-16T17:08:01.102Z,9.0
2018-07-16T17:13:01.229Z,8.9
2018-07-16T17:18:01.133Z,8.4
2018-07-16T17:23:01.173Z,8.6
2018-07-16T17:28:01.103Z,8.8
2018-07-16T17:33:01.241Z,8.6
2018-07-16T17:38:01.140Z,8.8
2018-07-16T17:43:01.155Z,9.0
2018-07-16T17:48:01.100Z,9.1
2018-07-16T17:53:01.171Z,9.0
2018-07-16T18:08:01.180Z,8.9
2018-07-16T18:13:01.234Z,8.7
2018-07-16T18:30:00.650Z,9.0
2018-07-16T18:35:00.540Z,10.8
2018-07-16T18:40:00.580Z,10.3
2018-07-16T18:45:00.586Z,9.7
2018-07-16T18:50:00.657Z,9.4
2018-07-16T19:00:00.646Z,8.2
2018-07-16T19:15:00.565Z,8.6
2018-07-16T19:20:00.567Z,8.3
2018-07-16T19:25:00.567Z,8.5
2018-07-16T19:30:00.708Z,8.4
2018-07-16T19:35:00.540Z,9.0
2018-07-16T19:40:00.642Z,9.2
2018-07-16T19:45:00.642Z,9.3
2018-07-16T19:50:00.641Z,10.0
2018-07-16T20:00:00.605Z,9.8
2018-07-16T20:05:00.614Z,10.0
2018-07-16T20:10:00.673Z,10.2
2018-07-16T20:15:00.630Z,9.9
2018-07-16T20:20:00.655Z,10.1
2018-07-16T20:25:00.596Z,10.8
2018-07-16T20:30:00.719Z,10.3
2018-07-16T20:35:00.589Z,10.6
2018-07-16T20:40:00.667Z,10.8
2018-07-16T20:45:00.594Z,11.4
2018-07-16T20:50:00.667Z,10.9
2018-07-16T20:55:00.599Z,11.0
2018-07-16T21:00:00.731Z,10.8
2018-07-16T21:05:00.602Z,10.7
2018-07-16T21:10:00.668Z,9.9
2018-07-16T21:15:00.608Z,10.0
2018-07-16T21:20:00.666Z,10.4
2018-07-16T21:25:00.575Z,10.7
2018-07-16T21:30:00.772Z,10.4
2018-07-16T21:35:00.610Z,11.1
2018-07-16T21:40:00.745Z,11.3
2018-07-16T21:45:00.618Z,11.3
2018-07-16T21:50:00.708Z,11.7
2018-07-16T21:55:00.582Z,12.4
2018-07-16T22:00:00.683Z,12.6
2018-07-16T22:05:00.621Z,12.4
2018-07-16T22:10:00.757Z,12.2
2018-07-16T22:15:00.690Z,12.4
2018-07-16T22:20:00.690Z,12.6
2018-07-16T22:25:00.677Z,12.3
2018-07-16T22:30:00.623Z,12.5
2018-07-16T22:35:00.626Z,12.6
2018-07-16T22:40:00.629Z,12.2
2018-07-16T22:45:00.641Z,12.3
2018-07-16T22:50:00.700Z,12.5
2018-07-16T22:55:00.636Z,12.4
2018-07-16T23:00:00.706Z,13.0
2018-07-16T23:05:00.664Z,13.4
2018-07-16T23:10:00.733Z,13.0
2018-07-16T23:15:00.644Z,13.4
2018-07-16T23:20:00.692Z,13.3
2018-07-16T23:25:00.673Z,13.8
2018-07-16T23:30:00.705Z,13.7
2018-07-16T23:35:00.655Z,14.6
2018-07-16T23:45:00.716Z,15.5
2018-07-16T23:50:00.652Z,15.3
